METAR Data
IDs: Format: Raw Decoded Include TAF

Data at: 1423 UTC 10 Aug 2022

METAR for:KGJT (Grand Junction Rgnl, CO, US)
Text:KGJT 101353Z 14005KT 10SM CLR 25/03 A3026 RMK AO2 SLP162 T02500033
Temperature: 25.0°C ( 77°F)
Dewpoint: 3.3°C ( 38°F) [RH = 24%]
Pressure (altimeter):30.26 inches Hg (1024.8 mb) [Sea level pressure: 1016.2 mb]
Winds:from the SE (140 degrees) at 6 MPH (5 knots; 2.6 m/s)
Visibility:10 or more sm (16+ km)
Ceiling:at least 12,000 feet AGL
Clouds:sky clear below 12,000 feet AGL